createdAt,value
2018-12-13T00:01:30.141Z,2.30
2018-12-13T00:03:58.505Z,2.30
2018-12-13T00:06:33.214Z,2.30
2018-12-13T00:08:57.290Z,2.20
2018-12-13T00:11:25.646Z,2.20
2018-12-13T00:13:53.991Z,2.20
2018-12-13T00:16:22.463Z,2.20
2018-12-13T00:18:50.815Z,2.20
2018-12-13T00:26:15.487Z,2.10
2018-12-13T00:31:12.129Z,2.10
2018-12-13T00:33:40.609Z,2.20
2018-12-13T00:36:08.900Z,2.20
2018-12-13T00:38:37.232Z,2.00
2018-12-13T00:41:05.576Z,2.00
2018-12-13T00:43:33.949Z,2.00
2018-12-13T00:46:02.315Z,2.00
2018-12-13T00:48:30.680Z,2.00
2018-12-13T00:50:59.074Z,2.00
2018-12-13T00:53:27.434Z,2.00
2018-12-13T00:55:55.845Z,1.90
2018-12-13T00:58:24.265Z,1.90
2018-12-13T01:00:54.846Z,1.90
2018-12-13T01:03:23.064Z,1.90
2018-12-13T01:05:51.415Z,1.90
2018-12-13T01:08:19.880Z,1.90
2018-12-13T01:10:48.299Z,1.90
2018-12-13T01:13:16.556Z,1.90
2018-12-13T01:15:44.938Z,1.90
2018-12-13T01:18:13.298Z,1.90
2018-12-13T01:28:06.580Z,2.00
2018-12-13T01:30:35.083Z,1.90
2018-12-13T01:33:03.427Z,1.90
2018-12-13T01:35:31.732Z,1.90
2018-12-13T01:38:00.183Z,1.90
2018-12-13T01:40:28.528Z,1.90
2018-12-13T01:42:56.878Z,1.90
2018-12-13T01:45:25.228Z,1.90
2018-12-13T01:47:53.614Z,1.90
2018-12-13T01:52:50.073Z,1.90
2018-12-13T01:55:19.405Z,1.90
2018-12-13T01:57:47.775Z,1.90
2018-12-13T02:00:16.210Z,1.90
2018-12-13T02:02:44.673Z,1.90
2018-12-13T02:05:13.025Z,2.00
2018-12-13T02:07:41.368Z,1.90
2018-12-13T02:10:09.753Z,1.90
2018-12-13T02:12:38.101Z,1.80
2018-12-13T02:15:06.460Z,1.80
2018-12-13T02:17:34.866Z,1.80
2018-12-13T02:20:03.209Z,1.90
2018-12-13T02:24:59.632Z,1.80
2018-12-13T02:27:28.009Z,1.70
2018-12-13T02:29:56.347Z,1.60
2018-12-13T02:32:24.663Z,1.70
2018-12-13T02:39:49.235Z,2.30
2018-12-13T02:42:17.537Z,1.70
2018-12-13T02:44:45.813Z,1.70
2018-12-13T02:47:14.230Z,1.80
2018-12-13T02:49:42.638Z,1.70
2018-12-13T02:52:12.113Z,1.70
2018-12-13T02:54:40.472Z,1.60
2018-12-13T02:57:08.867Z,1.60
2018-12-13T02:59:37.248Z,1.60
2018-12-13T03:02:05.687Z,1.60
2018-12-13T03:04:34.046Z,1.60
2018-12-13T03:07:02.520Z,1.60
2018-12-13T03:09:30.814Z,1.60
2018-12-13T03:11:59.164Z,1.60
2018-12-13T03:14:27.473Z,1.70
2018-12-13T03:16:55.784Z,1.60
2018-12-13T03:19:24.117Z,1.70
2018-12-13T03:24:20.485Z,1.60
2018-12-13T03:26:48.881Z,1.60
2018-12-13T03:29:17.230Z,1.50
2018-12-13T03:31:45.566Z,1.40
2018-12-13T03:39:10.118Z,1.30
2018-12-13T03:41:38.573Z,1.40
2018-12-13T03:44:07.019Z,1.40
2018-12-13T03:46:35.448Z,1.40
2018-12-13T03:51:32.043Z,1.60
2018-12-13T03:54:00.415Z,1.60
2018-12-13T03:56:28.811Z,1.60
2018-12-13T03:58:57.201Z,1.60
2018-12-13T04:01:25.523Z,1.70
2018-12-13T04:03:53.891Z,1.70
2018-12-13T04:06:22.288Z,1.70
2018-12-13T04:08:50.596Z,1.70
2018-12-13T04:11:18.908Z,1.70
2018-12-13T04:13:47.213Z,1.80
2018-12-13T04:16:15.559Z,1.80
2018-12-13T04:18:44.006Z,1.80
2018-12-13T04:21:12.368Z,1.80
2018-12-13T04:23:40.744Z,1.80
2018-12-13T04:26:09.099Z,1.90
2018-12-13T04:28:38.565Z,1.90
2018-12-13T04:31:07.049Z,1.90
2018-12-13T04:33:35.383Z,1.80
2018-12-13T04:38:31.807Z,1.70
2018-12-13T04:43:28.262Z,1.80
2018-12-13T04:45:56.612Z,1.90
2018-12-13T04:48:25.056Z,1.90
2018-12-13T04:50:53.575Z,1.90
2018-12-13T04:53:22.158Z,1.90
2018-12-13T04:55:50.629Z,1.90
2018-12-13T04:58:19.010Z,2.00
2018-12-13T05:00:47.457Z,1.90
2018-12-13T05:05:44.060Z,1.80
2018-12-13T05:08:12.340Z,1.80
2018-12-13T05:10:51.502Z,1.80
2018-12-13T05:13:20.131Z,1.80
2018-12-13T05:15:48.499Z,1.90
2018-12-13T05:18:16.925Z,1.70
2018-12-13T05:20:45.282Z,1.70
2018-12-13T05:23:13.710Z,1.70
2018-12-13T05:25:42.014Z,1.60
2018-12-13T05:28:10.381Z,1.70
2018-12-13T05:30:38.788Z,1.60
2018-12-13T05:33:07.131Z,1.50
2018-12-13T05:35:35.538Z,1.40
2018-12-13T05:38:03.914Z,1.50
2018-12-13T05:40:32.292Z,1.50
2018-12-13T05:43:00.638Z,1.50
2018-12-13T05:47:57.174Z,1.40
2018-12-13T05:50:25.557Z,1.40
2018-12-13T05:55:22.274Z,1.20
2018-12-13T05:57:50.595Z,1.20
2018-12-13T06:00:18.958Z,1.20
2018-12-13T06:02:47.435Z,1.20
2018-12-13T06:05:15.766Z,1.20
2018-12-13T06:07:44.118Z,1.20
2018-12-13T06:10:12.518Z,1.30
2018-12-13T06:12:40.975Z,1.20
2018-12-13T06:15:09.287Z,1.10
2018-12-13T06:17:37.581Z,1.20
2018-12-13T06:20:06.036Z,1.20
2018-12-13T06:22:34.338Z,1.30
2018-12-13T06:25:02.632Z,1.30
2018-12-13T06:27:31.027Z,1.40
2018-12-13T06:29:59.347Z,1.40
2018-12-13T06:32:27.672Z,1.30
2018-12-13T06:34:56.063Z,1.30
2018-12-13T06:37:24.450Z,1.10
2018-12-13T06:39:52.807Z,1.10
2018-12-13T06:47:17.494Z,1.20
2018-12-13T06:49:45.865Z,0.80
2018-12-13T06:52:14.305Z,0.90
2018-12-13T06:54:42.603Z,0.90
2018-12-13T06:57:11.111Z,0.80
2018-12-13T06:59:39.416Z,0.70
2018-12-13T07:02:07.748Z,0.40
2018-12-13T07:07:04.252Z,0.40
2018-12-13T07:09:32.702Z,0.40
2018-12-13T07:12:01.087Z,0.40
2018-12-13T07:14:29.427Z,0.30
2018-12-13T07:16:57.676Z,0.30
2018-12-13T07:19:26.030Z,0.30
2018-12-13T07:21:54.349Z,0.30
2018-12-13T07:24:22.784Z,0.30
2018-12-13T07:26:51.058Z,0.30
2018-12-13T07:29:19.408Z,0.20
2018-12-13T07:31:47.798Z,0.20
2018-12-13T07:34:16.204Z,0.20
2018-12-13T07:39:12.669Z,0.20
2018-12-13T07:44:09.055Z,0.20
2018-12-13T07:46:37.419Z,0.30
2018-12-13T07:49:05.794Z,0.30
2018-12-13T07:51:34.145Z,0.40
2018-12-13T07:54:02.699Z,0.40
2018-12-13T07:56:31.358Z,0.40
2018-12-13T07:58:59.962Z,0.40
2018-12-13T08:01:28.603Z,0.40
2018-12-13T08:03:57.210Z,0.30
2018-12-13T08:06:25.801Z,0.30
2018-12-13T08:08:54.496Z,0.40
2018-12-13T08:11:23.119Z,0.40
2018-12-13T08:13:51.821Z,0.40
2018-12-13T08:16:20.506Z,0.40
2018-12-13T08:18:49.192Z,0.50
2018-12-13T08:21:17.849Z,0.60
2018-12-13T08:23:46.476Z,0.60
2018-12-13T08:26:15.090Z,0.60
2018-12-13T08:28:43.752Z,0.80
2018-12-13T08:31:12.430Z,1.00
2018-12-13T08:33:41.023Z,1.10
2018-12-13T08:36:09.603Z,1.20
2018-12-13T08:38:38.187Z,1.30
2018-12-13T08:41:06.768Z,1.50
2018-12-13T08:51:00.226Z,2.20
2018-12-13T08:53:28.818Z,2.30
2018-12-13T08:55:57.458Z,2.40
2018-12-13T08:58:26.013Z,2.50
2018-12-13T09:00:54.630Z,2.60
2018-12-13T09:03:23.290Z,2.70
2018-12-13T09:05:51.835Z,2.70
2018-12-13T09:08:20.399Z,2.80
2018-12-13T09:10:49.047Z,2.90
2018-12-13T09:13:17.733Z,3.00
2018-12-13T09:15:46.375Z,3.00
2018-12-13T09:18:15.025Z,3.00
2018-12-13T09:20:43.719Z,3.10
2018-12-13T09:23:12.473Z,3.00
2018-12-13T09:25:41.158Z,2.90
2018-12-13T09:28:09.725Z,2.80
2018-12-13T09:30:38.488Z,2.80
2018-12-13T09:33:07.182Z,2.90
2018-12-13T09:35:35.803Z,3.10
2018-12-13T09:38:04.392Z,3.20
2018-12-13T09:40:33.075Z,3.20
2018-12-13T09:43:01.715Z,3.60
2018-12-13T09:50:27.098Z,4.00
2018-12-13T09:52:55.774Z,3.50
2018-12-13T09:55:24.334Z,3.50
2018-12-13T09:57:52.909Z,3.60
2018-12-13T10:00:21.569Z,3.70
2018-12-13T10:02:50.220Z,3.60
2018-12-13T10:05:19.407Z,3.60
2018-12-13T10:07:48.194Z,3.80
2018-12-13T10:10:16.823Z,3.80
2018-12-13T10:12:45.528Z,3.50
2018-12-13T10:15:14.156Z,3.50
2018-12-13T10:17:42.991Z,3.60
2018-12-13T10:20:11.649Z,3.60
2018-12-13T10:22:40.439Z,3.60
2018-12-13T10:25:09.034Z,3.90
2018-12-13T10:27:37.780Z,3.90
2018-12-13T10:30:06.449Z,3.90
2018-12-13T10:32:35.165Z,4.10
2018-12-13T10:35:03.847Z,4.10
2018-12-13T10:37:32.553Z,4.10
2018-12-13T10:40:01.226Z,4.10
2018-12-13T10:42:29.920Z,4.00
2018-12-13T10:44:58.547Z,4.00
2018-12-13T10:52:23.688Z,5.00
2018-12-13T10:54:52.208Z,4.60
2018-12-13T10:57:20.654Z,4.40
2018-12-13T10:59:49.188Z,4.50
2018-12-13T11:02:23.083Z,4.50
2018-12-13T11:04:51.480Z,4.60
2018-12-13T11:07:19.899Z,4.70
2018-12-13T11:09:48.283Z,4.70
2018-12-13T11:12:16.743Z,4.40
2018-12-13T11:14:45.062Z,4.40
2018-12-13T11:17:13.419Z,4.20
2018-12-13T11:19:41.807Z,4.20
2018-12-13T11:22:10.161Z,3.90
2018-12-13T11:24:38.521Z,4.10
2018-12-13T11:28:16.236Z,4.10
2018-12-13T11:30:44.652Z,3.80
2018-12-13T11:33:13.052Z,3.40
2018-12-13T11:35:41.393Z,3.50
2018-12-13T11:38:09.754Z,3.60
2018-12-13T11:40:38.247Z,3.70
2018-12-13T11:43:06.579Z,3.50
2018-12-13T11:45:34.947Z,3.80
2018-12-13T11:48:03.293Z,3.40
2018-12-13T11:50:31.705Z,3.60
2018-12-13T11:55:38.668Z,3.80
2018-12-13T11:58:10.630Z,3.90
2018-12-13T12:00:38.962Z,4.00
2018-12-13T12:05:35.472Z,3.90
2018-12-13T12:08:03.830Z,3.40
2018-12-13T12:10:32.261Z,3.40
2018-12-13T12:13:00.654Z,3.10
2018-12-13T12:15:29.014Z,3.10
2018-12-13T12:17:57.449Z,3.00
2018-12-13T12:20:25.847Z,3.00
2018-12-13T12:22:54.201Z,2.90
2018-12-13T12:25:22.522Z,2.90
2018-12-13T12:30:18.885Z,2.80
2018-12-13T12:32:47.199Z,2.90
2018-12-13T12:35:15.554Z,3.00
2018-12-13T12:37:43.929Z,3.10
2018-12-13T12:40:12.253Z,3.00
2018-12-13T12:42:40.574Z,3.20
2018-12-13T12:45:09.019Z,3.30
2018-12-13T12:47:37.401Z,3.50
2018-12-13T12:50:07.366Z,3.50
2018-12-13T12:52:35.689Z,3.00
2018-12-13T12:55:04.048Z,2.90
2018-12-13T12:57:32.373Z,3.10
2018-12-13T13:00:00.724Z,3.10
2018-12-13T13:02:30.282Z,3.00
2018-12-13T13:04:58.655Z,2.70
2018-12-13T13:07:26.992Z,3.00
2018-12-13T13:09:55.536Z,3.10
2018-12-13T13:12:23.898Z,3.20
2018-12-13T13:14:52.274Z,3.10
2018-12-13T13:17:20.604Z,3.10
2018-12-13T13:19:48.981Z,3.30
2018-12-13T13:22:17.354Z,3.30
2018-12-13T13:24:45.824Z,3.20
2018-12-13T13:27:14.180Z,3.10
2018-12-13T13:29:42.560Z,3.00
2018-12-13T13:32:10.936Z,3.00
2018-12-13T13:34:39.409Z,2.90
2018-12-13T13:37:07.800Z,3.00
2018-12-13T13:39:36.260Z,2.90
2018-12-13T13:42:04.610Z,2.50
2018-12-13T13:44:38.543Z,2.40
2018-12-13T13:47:06.905Z,2.30
2018-12-13T13:49:35.326Z,2.40
2018-12-13T13:52:03.661Z,2.30
2018-12-13T13:54:32.029Z,2.30
2018-12-13T13:57:00.405Z,2.30
2018-12-13T13:59:28.788Z,2.30
2018-12-13T14:01:57.149Z,2.10
2018-12-13T14:09:21.594Z,1.70
2018-12-13T14:11:49.963Z,1.70
2018-12-13T14:14:18.299Z,1.60
2018-12-13T14:16:46.669Z,1.80
2018-12-13T14:19:15.006Z,1.80
2018-12-13T14:21:43.311Z,1.90
2018-12-13T14:24:11.717Z,1.90
2018-12-13T14:26:40.115Z,1.90
2018-12-13T14:29:08.463Z,1.80
2018-12-13T14:31:36.813Z,1.70
2018-12-13T14:34:05.206Z,1.80
2018-12-13T14:36:33.585Z,1.70
2018-12-13T14:39:01.944Z,1.70
2018-12-13T14:41:30.280Z,1.70
2018-12-13T14:43:58.598Z,2.00
2018-12-13T14:46:27.024Z,2.00
2018-12-13T14:48:55.356Z,2.10
2018-12-13T14:51:23.851Z,1.90
2018-12-13T14:53:52.208Z,1.90
2018-12-13T14:56:20.567Z,2.00
2018-12-13T14:58:48.964Z,2.00
2018-12-13T15:01:17.332Z,2.10
2018-12-13T15:03:45.760Z,2.00
2018-12-13T15:06:14.098Z,1.90
2018-12-13T15:11:10.601Z,2.60
2018-12-13T15:13:38.976Z,1.90
2018-12-13T15:16:07.367Z,1.90
2018-12-13T15:18:35.828Z,2.00
2018-12-13T15:21:04.119Z,2.00
2018-12-13T15:23:32.593Z,1.90
2018-12-13T15:26:00.919Z,2.00
2018-12-13T15:28:29.263Z,1.90
2018-12-13T15:30:57.638Z,1.90
2018-12-13T15:33:26.050Z,1.90
2018-12-13T15:35:54.377Z,1.90
2018-12-13T15:38:22.666Z,1.90
2018-12-13T15:40:51.005Z,1.90
2018-12-13T15:43:19.309Z,1.70
2018-12-13T15:45:47.750Z,1.70
2018-12-13T15:48:16.158Z,1.60
2018-12-13T15:50:44.523Z,1.70
2018-12-13T15:53:12.854Z,1.70
2018-12-13T15:55:41.200Z,1.60
2018-12-13T15:58:09.558Z,1.60
2018-12-13T16:00:37.940Z,2.20
2018-12-13T16:05:34.421Z,1.50
2018-12-13T16:08:02.824Z,1.50
2018-12-13T16:12:59.260Z,1.40
2018-12-13T16:15:27.603Z,1.40
2018-12-13T16:17:56.011Z,1.30
2018-12-13T16:20:24.289Z,1.40
2018-12-13T16:22:52.589Z,1.30
2018-12-13T16:25:20.917Z,1.20
2018-12-13T16:27:49.217Z,1.30
2018-12-13T16:30:17.582Z,1.40
2018-12-13T16:32:45.884Z,1.40
2018-12-13T16:35:14.156Z,1.40
2018-12-13T16:37:42.524Z,1.30
2018-12-13T16:40:10.877Z,1.30
2018-12-13T16:42:39.195Z,1.40
2018-12-13T16:45:07.655Z,1.40
2018-12-13T16:47:35.998Z,1.40
2018-12-13T16:50:04.577Z,1.40
2018-12-13T16:52:32.942Z,1.40
2018-12-13T16:55:01.297Z,1.40
2018-12-13T16:57:29.687Z,1.30
2018-12-13T16:59:57.980Z,1.30
2018-12-13T17:02:26.301Z,1.20
2018-12-13T17:12:19.027Z,1.30
2018-12-13T17:14:47.368Z,1.30
2018-12-13T17:17:15.870Z,1.30
2018-12-13T17:19:44.225Z,1.30
2018-12-13T17:22:12.544Z,1.60
2018-12-13T17:24:40.970Z,2.00
2018-12-13T17:27:09.349Z,1.80
2018-12-13T17:29:37.872Z,1.60
2018-12-13T17:32:06.364Z,1.60
2018-12-13T17:34:34.679Z,1.40
2018-12-13T17:37:04.150Z,1.30
2018-12-13T17:42:00.666Z,1.30
2018-12-13T17:44:29.095Z,1.30
2018-12-13T17:46:58.688Z,1.20
2018-12-13T17:51:55.142Z,1.10
2018-12-13T17:54:23.474Z,1.00
2018-12-13T17:56:51.819Z,1.00
2018-12-13T17:59:20.197Z,0.90
2018-12-13T18:01:48.621Z,0.80
2018-12-13T18:06:44.955Z,1.00
2018-12-13T18:11:41.431Z,0.30
2018-12-13T18:14:09.797Z,0.90
2018-12-13T18:16:43.386Z,0.90
2018-12-13T18:19:08.656Z,1.00
2018-12-13T18:21:37.081Z,0.90
2018-12-13T18:24:05.411Z,0.80
2018-12-13T18:26:33.808Z,0.80
2018-12-13T18:31:30.260Z,0.80
2018-12-13T18:33:58.606Z,0.80
2018-12-13T18:36:26.863Z,0.80
2018-12-13T18:39:01.804Z,0.90
2018-12-13T18:41:30.036Z,0.90
2018-12-13T18:43:58.353Z,0.70
2018-12-13T18:51:22.944Z,0.80
2018-12-13T18:53:51.475Z,0.80
2018-12-13T18:56:20.009Z,2.70
2018-12-13T19:01:16.684Z,0.80
2018-12-13T19:13:37.806Z,0.70
2018-12-13T19:16:06.080Z,0.70
2018-12-13T19:18:34.497Z,0.60
2018-12-13T19:21:02.934Z,-1.00
2018-12-13T19:23:31.177Z,0.50
2018-12-13T19:25:59.591Z,0.50
2018-12-13T19:28:28.229Z,0.40
2018-12-13T19:30:56.911Z,0.50
2018-12-13T19:33:25.240Z,0.50
2018-12-13T19:35:53.624Z,0.40
2018-12-13T19:38:22.047Z,0.40
2018-12-13T19:40:50.273Z,0.50
2018-12-13T19:43:18.622Z,0.40
2018-12-13T19:45:47.010Z,0.30
2018-12-13T19:48:15.396Z,0.30
2018-12-13T19:50:44.114Z,0.30
2018-12-13T19:53:12.544Z,0.20
2018-12-13T19:55:40.849Z,0.20
2018-12-13T19:58:09.333Z,-0.50
2018-12-13T20:00:37.644Z,0.10
2018-12-13T20:03:06.023Z,0.10
2018-12-13T20:05:34.260Z,-0.30
2018-12-13T20:10:30.702Z,-0.10
2018-12-13T20:12:59.020Z,-0.10
2018-12-13T20:15:27.299Z,-0.20
2018-12-13T20:17:55.535Z,-0.20
2018-12-13T20:20:24.063Z,-0.40
2018-12-13T20:22:52.338Z,-0.40
2018-12-13T20:25:20.721Z,-0.70
2018-12-13T20:27:49.072Z,-0.30
2018-12-13T20:30:17.401Z,-0.40
2018-12-13T20:37:43.070Z,-0.50
2018-12-13T20:40:11.430Z,-0.30
2018-12-13T20:42:39.729Z,-0.40
2018-12-13T20:45:08.667Z,-0.30
2018-12-13T20:47:37.115Z,-0.70
2018-12-13T20:50:06.442Z,-0.70
2018-12-13T20:52:34.782Z,-0.70
2018-12-13T20:55:03.196Z,-0.80
2018-12-13T20:57:31.572Z,-0.80
2018-12-13T20:59:59.896Z,-0.80
2018-12-13T21:02:28.172Z,-0.90
2018-12-13T21:04:56.608Z,-0.90
2018-12-13T21:07:30.336Z,-1.10
2018-12-13T21:09:58.743Z,-1.40
2018-12-13T21:12:27.093Z,-1.40
2018-12-13T21:14:55.340Z,-1.40
2018-12-13T21:17:23.551Z,-1.40
2018-12-13T21:19:51.900Z,-1.50
2018-12-13T21:22:20.224Z,-1.70
2018-12-13T21:24:48.631Z,-1.70
2018-12-13T21:27:17.049Z,-1.80
2018-12-13T21:37:09.522Z,-1.80
2018-12-13T21:39:37.927Z,-1.80
2018-12-13T21:42:06.291Z,-1.80
2018-12-13T21:44:34.600Z,-1.80
2018-12-13T21:47:03.032Z,-1.80
2018-12-13T21:49:31.305Z,-1.80
2018-12-13T21:51:59.719Z,-2.00
2018-12-13T21:54:28.131Z,-2.00
2018-12-13T21:56:57.042Z,-2.10
2018-12-13T21:59:25.338Z,-3.30
2018-12-13T22:01:53.784Z,-2.00
2018-12-13T22:04:22.199Z,-2.10
2018-12-13T22:06:50.474Z,-2.10
2018-12-13T22:09:18.729Z,-2.20
2018-12-13T22:11:47.029Z,-2.20
2018-12-13T22:14:15.272Z,-2.20
2018-12-13T22:16:43.588Z,-2.10
2018-12-13T22:19:11.832Z,-1.90
2018-12-13T22:28:38.152Z,-2.00
2018-12-13T22:31:06.739Z,-2.20
2018-12-13T22:33:35.434Z,-2.00
2018-12-13T22:36:03.821Z,-1.80
2018-12-13T22:41:18.649Z,-1.60
2018-12-13T22:43:46.980Z,-1.60
2018-12-13T22:46:15.257Z,-1.60
2018-12-13T22:48:43.708Z,-1.50
2018-12-13T22:51:12.144Z,-1.50
2018-12-13T22:53:40.443Z,-1.50
2018-12-13T22:56:08.821Z,-1.40
2018-12-13T22:58:37.125Z,-1.40
2018-12-13T23:01:05.465Z,-1.40
2018-12-13T23:03:33.955Z,-1.30
2018-12-13T23:06:02.337Z,-1.30
2018-12-13T23:08:30.683Z,-1.30
2018-12-13T23:10:59.074Z,-1.30
2018-12-13T23:13:27.419Z,-1.20
2018-12-13T23:15:56.179Z,-1.70
2018-12-13T23:18:24.609Z,-1.20
2018-12-13T23:28:17.588Z,-1.20
2018-12-13T23:30:45.799Z,-1.20
2018-12-13T23:35:42.368Z,-1.20
2018-12-13T23:38:10.747Z,-1.10
2018-12-13T23:40:39.109Z,-1.10
2018-12-13T23:43:07.470Z,-1.20
2018-12-13T23:45:36.012Z,-1.20
2018-12-13T23:48:04.466Z,-1.20
2018-12-13T23:53:00.859Z,-1.30
2018-12-13T23:55:29.234Z,-1.40
2018-12-13T23:57:57.637Z,-1.40
